createdAt,value
2023-02-19T00:00:48.110Z,999.19
2023-02-19T00:01:48.140Z,999.14
2023-02-19T00:02:48.098Z,999.14
2023-02-19T00:03:48.215Z,999.14
2023-02-19T00:04:48.130Z,999.19
2023-02-19T00:05:48.088Z,999.10
2023-02-19T00:06:48.062Z,999.12
2023-02-19T00:07:48.095Z,999.09
2023-02-19T00:08:48.101Z,999.12
2023-02-19T00:09:48.024Z,999.08
2023-02-19T00:10:50.318Z,999.09
2023-02-19T00:11:48.172Z,999.12
2023-02-19T00:12:48.052Z,999.15
2023-02-19T00:13:48.057Z,999.09
2023-02-19T00:14:48.108Z,999.10
2023-02-19T00:15:48.637Z,999.11
2023-02-19T00:16:48.005Z,999.15
2023-02-19T00:17:49.148Z,999.16
2023-02-19T00:18:48.029Z,999.26
2023-02-19T00:19:48.197Z,999.24
2023-02-19T00:20:48.981Z,999.23
2023-02-19T00:21:48.156Z,999.25
2023-02-19T00:22:48.511Z,999.31
2023-02-19T00:23:47.976Z,999.28
2023-02-19T00:24:49.319Z,999.28
2023-02-19T00:25:49.056Z,999.26
2023-02-19T00:26:48.009Z,999.24
2023-02-19T00:27:48.613Z,999.28
2023-02-19T00:28:47.896Z,999.30
2023-02-19T00:29:48.516Z,999.27
2023-02-19T00:30:47.931Z,999.26
2023-02-19T00:31:48.243Z,999.25
2023-02-19T00:32:47.905Z,999.22
2023-02-19T00:33:48.011Z,999.16
2023-02-19T00:34:48.011Z,999.11
2023-02-19T00:35:47.869Z,999.05
2023-02-19T00:36:48.692Z,999.03
2023-02-19T00:37:47.905Z,999.00
2023-02-19T00:38:48.552Z,998.96
2023-02-19T00:39:47.816Z,998.86
2023-02-19T00:40:48.616Z,998.81
2023-02-19T00:41:48.612Z,998.79
2023-02-19T00:42:47.853Z,998.82
2023-02-19T00:43:48.009Z,998.78
2023-02-19T00:44:47.828Z,998.74
2023-02-19T00:45:48.624Z,998.76
2023-02-19T00:46:48.661Z,998.64
2023-02-19T00:47:48.757Z,998.76
2023-02-19T00:48:47.864Z,998.79
2023-02-19T00:49:47.801Z,998.62
2023-02-19T00:50:47.784Z,998.73
2023-02-19T00:51:47.843Z,998.81
2023-02-19T00:52:47.768Z,998.79
2023-02-19T00:53:47.903Z,998.79
2023-02-19T00:54:47.773Z,998.81
2023-02-19T00:55:47.762Z,998.84
2023-02-19T00:56:47.728Z,998.84
2023-02-19T00:57:47.741Z,998.79
2023-02-19T00:58:47.832Z,998.88
2023-02-19T00:59:47.749Z,998.78
2023-02-19T01:00:47.700Z,998.71
2023-02-19T01:01:47.715Z,998.65
2023-02-19T01:02:47.676Z,998.66
2023-02-19T01:03:47.687Z,998.65
2023-02-19T01:04:47.774Z,998.67
2023-02-19T01:05:47.738Z,998.74
2023-02-19T01:06:47.757Z,998.64
2023-02-19T01:07:47.687Z,998.65
2023-02-19T01:08:47.656Z,998.69
2023-02-19T01:09:47.622Z,998.68
2023-02-19T01:10:47.674Z,998.66
2023-02-19T01:11:47.665Z,998.66
2023-02-19T01:12:47.631Z,998.69
2023-02-19T01:13:47.659Z,998.62
2023-02-19T01:14:47.691Z,998.64
2023-02-19T01:15:48.728Z,998.67
2023-02-19T01:16:47.649Z,998.62
2023-02-19T01:17:47.588Z,998.64
2023-02-19T01:18:47.583Z,998.60
2023-02-19T01:19:47.587Z,998.68
2023-02-19T01:20:47.590Z,998.64
2023-02-19T01:21:47.606Z,998.64
2023-02-19T01:22:47.550Z,998.65
2023-02-19T01:23:47.542Z,998.68
2023-02-19T01:24:47.536Z,998.67
2023-02-19T01:25:48.532Z,998.60
2023-02-19T01:26:47.557Z,998.58
2023-02-19T01:27:47.506Z,998.62
2023-02-19T01:28:47.532Z,998.57
2023-02-19T01:29:47.590Z,998.53
2023-02-19T01:30:47.589Z,998.56
2023-02-19T01:31:47.654Z,998.50
2023-02-19T01:32:47.521Z,998.53
2023-02-19T01:33:47.543Z,998.51
2023-02-19T01:34:47.520Z,998.48
2023-02-19T01:35:47.520Z,998.52
2023-02-19T01:36:47.512Z,998.51
2023-02-19T01:37:47.530Z,998.42
2023-02-19T01:38:47.469Z,998.45
2023-02-19T01:39:47.621Z,998.43
2023-02-19T01:40:47.442Z,998.43
2023-02-19T01:41:47.585Z,998.52
2023-02-19T01:42:47.429Z,998.49
2023-02-19T01:43:47.443Z,998.47
2023-02-19T01:44:47.442Z,998.49
2023-02-19T01:45:47.443Z,998.44
2023-02-19T01:46:47.786Z,998.41
2023-02-19T01:47:47.428Z,998.33
2023-02-19T01:48:47.662Z,998.35
2023-02-19T01:49:47.384Z,998.38
2023-02-19T01:50:47.419Z,998.40
2023-02-19T01:51:47.379Z,998.34
2023-02-19T01:52:47.383Z,998.33
2023-02-19T01:53:47.359Z,998.33
2023-02-19T01:54:47.413Z,998.30
2023-02-19T01:55:47.349Z,998.30
2023-02-19T01:56:48.345Z,998.27
2023-02-19T01:57:47.421Z,998.23
2023-02-19T01:58:47.394Z,998.21
2023-02-19T01:59:47.360Z,998.20
2023-02-19T02:00:47.331Z,998.22
2023-02-19T02:01:47.354Z,998.20
2023-02-19T02:02:47.294Z,998.15
2023-02-19T02:03:48.321Z,998.20
2023-02-19T02:04:47.285Z,998.20
2023-02-19T02:05:47.340Z,998.11
2023-02-19T02:06:47.290Z,998.15
2023-02-19T02:07:48.137Z,998.18
2023-02-19T02:08:47.325Z,998.16
2023-02-19T02:09:47.269Z,998.17
2023-02-19T02:10:48.158Z,998.15
2023-02-19T02:11:48.117Z,998.17
2023-02-19T02:12:47.639Z,998.15
2023-02-19T02:13:47.230Z,998.05
2023-02-19T02:14:47.274Z,997.96
2023-02-19T02:15:48.133Z,998.06
2023-02-19T02:16:47.222Z,997.99
2023-02-19T02:17:47.237Z,998.03
2023-02-19T02:18:47.240Z,998.03
2023-02-19T02:19:47.186Z,998.05
2023-02-19T02:20:47.223Z,998.04
2023-02-19T02:21:47.218Z,998.10
2023-02-19T02:22:47.186Z,998.08
2023-02-19T02:23:47.261Z,998.05
2023-02-19T02:24:47.151Z,998.06
2023-02-19T02:25:47.204Z,998.06
2023-02-19T02:26:47.224Z,997.99
2023-02-19T02:27:47.213Z,998.02
2023-02-19T02:28:47.198Z,997.98
2023-02-19T02:29:47.169Z,998.01
2023-02-19T02:30:47.145Z,998.03
2023-02-19T02:31:47.212Z,998.00
2023-02-19T02:32:47.172Z,998.00
2023-02-19T02:33:47.164Z,997.92
2023-02-19T02:34:47.138Z,998.01
2023-02-19T02:35:47.215Z,997.97
2023-02-19T02:36:47.101Z,997.96
2023-02-19T02:37:47.117Z,997.92
2023-02-19T02:38:47.091Z,997.99
2023-02-19T02:39:47.104Z,997.99
2023-02-19T02:40:47.117Z,997.93
2023-02-19T02:41:47.044Z,997.91
2023-02-19T02:42:47.079Z,997.92
2023-02-19T02:43:47.074Z,997.87
2023-02-19T02:44:47.056Z,997.85
2023-02-19T02:45:47.041Z,997.87
2023-02-19T02:46:47.064Z,997.86
2023-02-19T02:47:47.025Z,997.78
2023-02-19T02:48:47.012Z,997.86
2023-02-19T02:49:47.623Z,997.85
2023-02-19T02:50:47.020Z,997.84
2023-02-19T02:51:46.987Z,997.88
2023-02-19T02:52:46.994Z,997.88
2023-02-19T02:53:47.018Z,997.83
2023-02-19T02:54:46.991Z,997.75
2023-02-19T02:55:46.986Z,997.80
2023-02-19T02:56:47.026Z,997.77
2023-02-19T02:57:46.938Z,997.79
2023-02-19T02:58:46.961Z,997.76
2023-02-19T02:59:46.935Z,997.71
2023-02-19T03:00:46.928Z,997.71
2023-02-19T03:01:46.936Z,997.69
2023-02-19T03:02:46.908Z,997.75
2023-02-19T03:03:46.956Z,997.75
2023-02-19T03:04:47.714Z,997.76
2023-02-19T03:05:46.914Z,997.79
2023-02-19T03:06:46.938Z,997.82
2023-02-19T03:07:46.905Z,997.77
2023-02-19T03:08:46.876Z,997.75
2023-02-19T03:09:49.354Z,997.73
2023-02-19T03:10:46.871Z,997.72
2023-02-19T03:11:46.878Z,997.68
2023-02-19T03:12:46.858Z,997.69
2023-02-19T03:13:46.869Z,997.72
2023-02-19T03:14:46.838Z,997.65
2023-02-19T03:15:46.849Z,997.66
2023-02-19T03:16:47.059Z,997.69
2023-02-19T03:17:46.862Z,997.67
2023-02-19T03:18:46.852Z,997.69
2023-02-19T03:19:46.807Z,997.66
2023-02-19T03:20:46.812Z,997.63
2023-02-19T03:21:46.874Z,997.62
2023-02-19T03:22:46.810Z,997.61
2023-02-19T03:23:46.778Z,997.61
2023-02-19T03:24:46.824Z,997.63
2023-02-19T03:25:46.759Z,997.67
2023-02-19T03:26:46.796Z,997.62
2023-02-19T03:27:46.824Z,997.60
2023-02-19T03:28:46.775Z,997.55
2023-02-19T03:29:46.735Z,997.57
2023-02-19T03:30:46.734Z,997.53
2023-02-19T03:31:46.823Z,997.50
2023-02-19T03:32:46.730Z,997.52
2023-02-19T03:33:46.753Z,997.50
2023-02-19T03:34:46.707Z,997.52
2023-02-19T03:35:46.705Z,997.59
2023-02-19T03:36:47.719Z,997.55
2023-02-19T03:37:46.751Z,997.54
2023-02-19T03:38:46.712Z,997.57
2023-02-19T03:39:46.717Z,997.55
2023-02-19T03:40:46.665Z,997.62
2023-02-19T03:41:46.654Z,997.60
2023-02-19T03:42:46.672Z,997.59
2023-02-19T03:43:46.673Z,997.64
2023-02-19T03:44:46.660Z,997.61
2023-02-19T03:45:46.674Z,997.59
2023-02-19T03:46:46.722Z,997.57
2023-02-19T03:47:46.705Z,997.54
2023-02-19T03:48:46.664Z,997.59
2023-02-19T03:49:48.925Z,997.55
2023-02-19T03:50:47.602Z,997.55
2023-02-19T03:51:46.624Z,997.58
2023-02-19T03:52:46.614Z,997.60
2023-02-19T03:53:46.608Z,997.61
2023-02-19T03:54:46.591Z,997.59
2023-02-19T03:55:46.591Z,997.55
2023-02-19T03:56:46.578Z,997.63
2023-02-19T03:57:46.592Z,997.66
2023-02-19T03:58:48.128Z,997.66
2023-02-19T03:59:46.548Z,997.69
2023-02-19T04:00:46.552Z,997.79
2023-02-19T04:01:46.636Z,997.74
2023-02-19T04:02:46.533Z,997.81
2023-02-19T04:03:46.529Z,997.83
2023-02-19T04:04:46.558Z,997.89
2023-02-19T04:05:46.573Z,997.96
2023-02-19T04:06:46.569Z,998.00
2023-02-19T04:07:46.526Z,997.98
2023-02-19T04:08:46.525Z,998.04
2023-02-19T04:09:46.510Z,998.04
2023-02-19T04:10:46.501Z,998.06
2023-02-19T04:11:46.478Z,998.09
2023-02-19T04:12:47.133Z,998.03
2023-02-19T04:13:46.469Z,998.04
2023-02-19T04:14:46.499Z,998.11
2023-02-19T04:15:46.515Z,998.09
2023-02-19T04:16:46.552Z,998.09
2023-02-19T04:17:46.433Z,998.18
2023-02-19T04:18:46.478Z,998.16
2023-02-19T04:19:46.414Z,998.15
2023-02-19T04:20:46.420Z,998.18
2023-02-19T04:21:46.426Z,998.18
2023-02-19T04:22:46.430Z,998.21
2023-02-19T04:23:46.418Z,998.29
2023-02-19T04:24:46.387Z,998.29
2023-02-19T04:25:46.413Z,998.17
2023-02-19T04:26:46.557Z,998.26
2023-02-19T04:27:46.381Z,998.27
2023-02-19T04:28:46.385Z,998.23
2023-02-19T04:29:46.380Z,998.19
2023-02-19T04:30:46.402Z,998.38
2023-02-19T04:31:46.457Z,998.33
2023-02-19T04:32:46.358Z,998.30
2023-02-19T04:33:46.396Z,998.39
2023-02-19T04:34:46.350Z,998.26
2023-02-19T04:35:46.333Z,998.32
2023-02-19T04:36:46.312Z,998.35
2023-02-19T04:37:46.449Z,998.37
2023-02-19T04:38:46.305Z,998.39
2023-02-19T04:39:46.389Z,998.48
2023-02-19T04:40:47.227Z,998.35
2023-02-19T04:41:46.283Z,998.44
2023-02-19T04:42:46.344Z,998.36
2023-02-19T04:43:47.149Z,998.37
2023-02-19T04:44:46.365Z,998.40
2023-02-19T04:45:46.281Z,998.35
2023-02-19T04:46:46.266Z,998.46
2023-02-19T04:47:46.270Z,998.44
2023-02-19T04:48:47.175Z,998.47
2023-02-19T04:49:46.335Z,998.48
2023-02-19T04:50:46.257Z,998.46
2023-02-19T04:51:46.220Z,998.45
2023-02-19T04:52:46.252Z,998.47
2023-02-19T04:53:46.215Z,998.44
2023-02-19T04:54:46.240Z,998.53
2023-02-19T04:55:46.207Z,998.49
2023-02-19T04:56:46.214Z,998.52
2023-02-19T04:57:46.227Z,998.59
2023-02-19T04:58:47.148Z,998.54
2023-02-19T04:59:46.190Z,998.54
2023-02-19T05:00:46.239Z,998.55
2023-02-19T05:01:46.248Z,998.61
2023-02-19T05:02:46.190Z,998.63
2023-02-19T05:03:46.183Z,998.63
2023-02-19T05:04:46.171Z,998.68
2023-02-19T05:05:47.179Z,998.70
2023-02-19T05:06:46.206Z,998.67
2023-02-19T05:07:46.139Z,998.66
2023-02-19T05:08:46.203Z,998.64
2023-02-19T05:09:46.154Z,998.65
2023-02-19T05:10:47.182Z,998.68
2023-02-19T05:11:46.145Z,998.70
2023-02-19T05:12:46.163Z,998.70
2023-02-19T05:13:46.145Z,998.73
2023-02-19T05:14:46.084Z,998.67
2023-02-19T05:15:46.213Z,998.78
2023-02-19T05:16:46.060Z,998.83
2023-02-19T05:17:46.157Z,998.82
2023-02-19T05:18:46.135Z,998.89
2023-02-19T05:19:46.051Z,998.89
2023-02-19T05:20:46.093Z,998.87
2023-02-19T05:21:46.085Z,998.88
2023-02-19T05:22:46.040Z,998.89
2023-02-19T05:23:46.022Z,998.85
2023-02-19T05:24:46.701Z,998.94
2023-02-19T05:25:46.047Z,998.94
2023-02-19T05:26:46.067Z,998.85
2023-02-19T05:27:46.019Z,998.86
2023-02-19T05:28:46.001Z,998.99
2023-02-19T05:29:45.979Z,998.97
2023-02-19T05:30:46.047Z,999.02
2023-02-19T05:31:46.054Z,999.00
2023-02-19T05:32:45.957Z,999.07
2023-02-19T05:33:45.943Z,999.05
2023-02-19T05:34:45.956Z,999.07
2023-02-19T05:35:45.960Z,999.16
2023-02-19T05:36:45.964Z,999.15
2023-02-19T05:37:46.000Z,999.19
2023-02-19T05:38:46.185Z,999.15
2023-02-19T05:39:45.922Z,999.16
2023-02-19T05:40:45.953Z,999.19
2023-02-19T05:41:45.944Z,999.13
2023-02-19T05:42:45.948Z,999.21
2023-02-19T05:43:45.913Z,999.24
2023-02-19T05:44:45.934Z,999.14
2023-02-19T05:45:45.906Z,999.22
2023-02-19T05:46:45.941Z,999.11
2023-02-19T05:47:45.902Z,999.23
2023-02-19T05:48:45.862Z,999.24
2023-02-19T05:49:45.849Z,999.27
2023-02-19T05:50:45.854Z,999.26
2023-02-19T05:51:45.845Z,999.33
2023-02-19T05:52:45.882Z,999.37
2023-02-19T05:53:45.829Z,999.42
2023-02-19T05:54:45.843Z,999.34
2023-02-19T05:55:45.934Z,999.36
2023-02-19T05:56:45.909Z,999.37
2023-02-19T05:57:45.830Z,999.34
2023-02-19T05:58:45.849Z,999.39
2023-02-19T05:59:45.881Z,999.37
2023-02-19T06:00:45.868Z,999.43
2023-02-19T06:01:45.830Z,999.45
2023-02-19T06:02:45.837Z,999.46
2023-02-19T06:03:45.867Z,999.54
2023-02-19T06:04:45.815Z,999.45
2023-02-19T06:05:45.784Z,999.47
2023-02-19T06:06:45.771Z,999.44
2023-02-19T06:07:45.771Z,999.53
2023-02-19T06:08:45.752Z,999.46
2023-02-19T06:09:45.795Z,999.47
2023-02-19T06:10:45.739Z,999.48
2023-02-19T06:11:45.760Z,999.55
2023-02-19T06:12:45.716Z,999.63
2023-02-19T06:13:45.735Z,999.65
2023-02-19T06:14:45.711Z,999.77
2023-02-19T06:15:45.751Z,999.67
2023-02-19T06:16:46.650Z,999.63
2023-02-19T06:17:45.708Z,999.72
2023-02-19T06:18:45.671Z,999.66
2023-02-19T06:19:45.721Z,999.71
2023-02-19T06:20:45.694Z,999.77
2023-02-19T06:21:45.714Z,999.76
2023-02-19T06:22:45.723Z,999.79
2023-02-19T06:23:45.672Z,999.78
2023-02-19T06:24:45.688Z,999.81
2023-02-19T06:25:45.719Z,999.95
2023-02-19T06:26:45.651Z,999.83
2023-02-19T06:27:45.636Z,999.87
2023-02-19T06:28:45.615Z,999.87
2023-02-19T06:29:45.660Z,999.80
2023-02-19T06:30:45.638Z,999.98
2023-02-19T06:31:48.240Z,999.95
2023-02-19T06:32:48.625Z,999.96
2023-02-19T06:33:47.623Z,999.95
2023-02-19T06:34:45.588Z,999.93
2023-02-19T06:35:45.603Z,999.97
2023-02-19T06:36:48.869Z,999.90
2023-02-19T06:37:47.193Z,1000.02
2023-02-19T06:38:46.150Z,999.99
2023-02-19T06:39:47.756Z,1000.03
2023-02-19T06:40:45.579Z,1000.03
2023-02-19T06:41:45.537Z,1000.11
2023-02-19T06:42:48.510Z,1000.05
2023-02-19T06:43:46.199Z,1000.08
2023-02-19T06:44:45.598Z,1000.09
2023-02-19T06:45:46.739Z,1000.15
2023-02-19T06:46:45.523Z,1000.19
2023-02-19T06:47:46.694Z,1000.21
2023-02-19T06:48:45.489Z,1000.14
2023-02-19T06:49:45.495Z,1000.15
2023-02-19T06:50:45.643Z,1000.21
2023-02-19T06:51:45.482Z,1000.27
2023-02-19T06:52:46.575Z,1000.27
2023-02-19T06:53:45.667Z,1000.30
2023-02-19T06:54:45.634Z,1000.21
2023-02-19T06:55:47.834Z,1000.27
2023-02-19T06:56:47.083Z,1000.30
2023-02-19T06:57:46.531Z,1000.33
2023-02-19T06:58:45.446Z,1000.28
2023-02-19T06:59:45.469Z,1000.31
2023-02-19T07:00:45.452Z,1000.35
2023-02-19T07:01:46.256Z,1000.37
2023-02-19T07:02:46.326Z,1000.37
2023-02-19T07:03:45.644Z,1000.42
2023-02-19T07:04:45.393Z,1000.46
2023-02-19T07:05:45.423Z,1000.44
2023-02-19T07:06:45.367Z,1000.42
2023-02-19T07:07:46.180Z,1000.45
2023-02-19T07:08:45.420Z,1000.50
2023-02-19T07:09:45.446Z,1000.54
2023-02-19T07:10:46.112Z,1000.52
2023-02-19T07:11:46.671Z,1000.56
2023-02-19T07:12:47.222Z,1000.58
2023-02-19T07:13:45.342Z,1000.59
2023-02-19T07:14:45.317Z,1000.59
2023-02-19T07:15:45.460Z,1000.55
2023-02-19T07:16:46.131Z,1000.55
2023-02-19T07:17:47.127Z,1000.55
2023-02-19T07:18:45.299Z,1000.57
2023-02-19T07:19:45.312Z,1000.64
2023-02-19T07:20:45.286Z,1000.62
2023-02-19T07:21:49.263Z,1000.62
2023-02-19T07:22:46.388Z,1000.70
2023-02-19T07:23:45.578Z,1000.69
2023-02-19T07:24:47.811Z,1000.69
2023-02-19T07:25:45.257Z,1000.71
2023-02-19T07:26:45.229Z,1000.71
2023-02-19T07:27:45.268Z,1000.78
2023-02-19T07:28:45.338Z,1000.77
2023-02-19T07:29:46.250Z,1000.80
2023-02-19T07:30:45.320Z,1000.85
2023-02-19T07:31:45.217Z,1000.81
2023-02-19T07:32:45.201Z,1000.83
2023-02-19T07:33:45.222Z,1000.84
2023-02-19T07:34:45.189Z,1000.83
2023-02-19T07:35:45.233Z,1000.83
2023-02-19T07:36:45.181Z,1000.87
2023-02-19T07:37:45.201Z,1000.92
2023-02-19T07:38:46.394Z,1000.90
2023-02-19T07:39:45.157Z,1001.01
2023-02-19T07:40:45.312Z,1000.96
2023-02-19T07:41:45.176Z,1001.01
2023-02-19T07:42:45.146Z,1001.06
2023-02-19T07:43:45.151Z,1001.07
2023-02-19T07:44:45.140Z,1001.08
2023-02-19T07:45:45.242Z,1001.14
2023-02-19T07:46:45.354Z,1001.10
2023-02-19T07:47:45.657Z,1001.07
2023-02-19T07:48:45.121Z,1001.16
2023-02-19T07:49:45.123Z,1001.07
2023-02-19T07:50:45.085Z,1001.11
2023-02-19T07:51:45.157Z,1001.14
2023-02-19T07:52:45.093Z,1001.21
2023-02-19T07:53:45.070Z,1001.28
2023-02-19T07:54:45.100Z,1001.32
2023-02-19T07:55:45.084Z,1001.30
2023-02-19T07:56:45.058Z,1001.36
2023-02-19T07:57:45.065Z,1001.37
2023-02-19T07:58:45.087Z,1001.44
2023-02-19T07:59:45.036Z,1001.43
2023-02-19T08:00:45.048Z,1001.44
2023-02-19T08:01:45.074Z,1001.46
2023-02-19T08:02:45.030Z,1001.46
2023-02-19T08:03:45.012Z,1001.45
2023-02-19T08:04:45.039Z,1001.55
2023-02-19T08:05:45.019Z,1001.64
2023-02-19T08:06:45.013Z,1001.57
2023-02-19T08:07:44.992Z,1001.58
2023-02-19T08:08:45.001Z,1001.65
2023-02-19T08:09:44.977Z,1001.63
2023-02-19T08:10:44.956Z,1001.71
2023-02-19T08:11:44.989Z,1001.74
2023-02-19T08:12:44.953Z,1001.74
2023-02-19T08:13:44.957Z,1001.73
2023-02-19T08:14:45.020Z,1001.69
2023-02-19T08:15:44.933Z,1001.76
2023-02-19T08:16:44.959Z,1001.74
2023-02-19T08:17:44.919Z,1001.73
2023-02-19T08:18:44.917Z,1001.69
2023-02-19T08:19:44.926Z,1001.64
2023-02-19T08:20:44.899Z,1001.69
2023-02-19T08:21:44.880Z,1001.69
2023-02-19T08:22:45.293Z,1001.67
2023-02-19T08:23:44.864Z,1001.71
2023-02-19T08:24:44.890Z,1001.70
2023-02-19T08:25:45.066Z,1001.72
2023-02-19T08:26:44.859Z,1001.78
2023-02-19T08:27:44.854Z,1001.75
2023-02-19T08:28:44.897Z,1001.80
2023-02-19T08:29:44.838Z,1001.80
2023-02-19T08:30:44.925Z,1001.86
2023-02-19T08:31:44.924Z,1001.85
2023-02-19T08:32:44.827Z,1001.81
2023-02-19T08:33:44.815Z,1001.85
2023-02-19T08:34:44.828Z,1001.91
2023-02-19T08:35:44.836Z,1001.90
2023-02-19T08:36:44.792Z,1001.87
2023-02-19T08:37:44.854Z,1001.86
2023-02-19T08:38:44.802Z,1001.93
2023-02-19T08:39:44.769Z,1001.88
2023-02-19T08:40:44.792Z,1001.90
2023-02-19T08:41:44.761Z,1001.92
2023-02-19T08:42:44.761Z,1001.93
2023-02-19T08:43:44.777Z,1001.90
2023-02-19T08:44:44.744Z,1001.96
2023-02-19T08:45:44.736Z,1001.99
2023-02-19T08:46:44.770Z,1002.00
2023-02-19T08:47:44.734Z,1001.98
2023-02-19T08:48:44.703Z,1001.96
2023-02-19T08:49:44.755Z,1001.98
2023-02-19T08:50:44.700Z,1001.95
2023-02-19T08:51:44.690Z,1001.93
2023-02-19T08:52:44.682Z,1001.98
2023-02-19T08:53:44.703Z,1002.04
2023-02-19T08:54:44.658Z,1002.07
2023-02-19T08:55:44.679Z,1002.01
2023-02-19T08:56:44.664Z,1002.09
2023-02-19T08:57:44.636Z,1002.08
2023-02-19T08:58:44.656Z,1002.10
2023-02-19T08:59:44.642Z,1002.10
2023-02-19T09:00:44.629Z,1002.09
2023-02-19T09:01:44.739Z,1002.10
2023-02-19T09:02:44.599Z,1002.20
2023-02-19T09:03:44.684Z,1002.15
2023-02-19T09:04:44.631Z,1002.17
2023-02-19T09:05:44.586Z,1002.24
2023-02-19T09:06:44.578Z,1002.24
2023-02-19T09:07:44.600Z,1002.23
2023-02-19T09:08:45.232Z,1002.27
2023-02-19T09:09:44.562Z,1002.26
2023-02-19T09:10:45.660Z,1002.23
2023-02-19T09:11:44.575Z,1002.16
2023-02-19T09:12:44.681Z,1002.20
2023-02-19T09:13:44.573Z,1002.23
2023-02-19T09:14:45.116Z,1002.32
2023-02-19T09:15:44.548Z,1002.28
2023-02-19T09:16:44.561Z,1002.37
2023-02-19T09:18:04.043Z,1002.38
2023-02-19T09:18:44.500Z,1002.36
2023-02-19T09:19:44.519Z,1002.34
2023-02-19T09:20:44.481Z,1002.39
2023-02-19T09:21:44.497Z,1002.42
2023-02-19T09:22:44.491Z,1002.36
2023-02-19T09:23:44.471Z,1002.42
2023-02-19T09:24:44.496Z,1002.48
2023-02-19T09:25:44.568Z,1002.45
2023-02-19T09:26:44.717Z,1002.35
2023-02-19T09:27:44.453Z,1002.36
2023-02-19T09:28:44.449Z,1002.33
2023-02-19T09:29:44.634Z,1002.36
2023-02-19T09:30:44.472Z,1002.38
2023-02-19T09:31:45.341Z,1002.36
2023-02-19T09:32:44.482Z,1002.34
2023-02-19T09:33:44.433Z,1002.41
2023-02-19T09:34:44.391Z,1002.41
2023-02-19T09:35:44.513Z,1002.51
2023-02-19T09:36:44.419Z,1002.57
2023-02-19T09:37:44.412Z,1002.70
2023-02-19T09:38:44.389Z,1002.72
2023-02-19T09:39:44.357Z,1002.76
2023-02-19T09:40:44.443Z,1002.80
2023-02-19T09:41:44.359Z,1002.83
2023-02-19T09:42:44.350Z,1002.86
2023-02-19T09:43:44.406Z,1002.85
2023-02-19T09:44:44.339Z,1002.91
2023-02-19T09:45:44.336Z,1002.88
2023-02-19T09:46:44.322Z,1002.89
2023-02-19T09:47:44.318Z,1002.86
2023-02-19T09:48:45.694Z,1002.94
2023-02-19T09:49:44.296Z,1002.98
2023-02-19T09:50:45.380Z,1003.03
2023-02-19T09:51:44.285Z,1002.98
2023-02-19T09:52:44.359Z,1003.00
2023-02-19T09:53:44.283Z,1003.02
2023-02-19T09:54:45.506Z,1002.96
2023-02-19T09:55:45.036Z,1003.08
2023-02-19T09:56:44.275Z,1003.08
2023-02-19T09:57:44.275Z,1003.06
2023-02-19T09:58:44.310Z,1003.06
2023-02-19T09:59:44.237Z,1003.08
2023-02-19T10:00:44.231Z,1003.08
2023-02-19T10:01:44.234Z,1003.18
2023-02-19T10:02:44.207Z,1003.22
2023-02-19T10:03:44.655Z,1003.25
2023-02-19T10:04:44.301Z,1003.24
2023-02-19T10:05:45.078Z,1003.21
2023-02-19T10:06:44.189Z,1003.30
2023-02-19T10:07:44.239Z,1003.21
2023-02-19T10:08:45.643Z,1003.28
2023-02-19T10:09:45.165Z,1003.31
2023-02-19T10:10:44.180Z,1003.32
2023-02-19T10:11:44.149Z,1003.33
2023-02-19T10:12:44.150Z,1003.33
2023-02-19T10:13:44.171Z,1003.38
2023-02-19T10:14:44.147Z,1003.31
2023-02-19T10:15:44.214Z,1003.36
2023-02-19T10:16:44.137Z,1003.34
2023-02-19T10:17:44.360Z,1003.40
2023-02-19T10:18:44.113Z,1003.39
2023-02-19T10:19:44.112Z,1003.50
2023-02-19T10:20:44.113Z,1003.42
2023-02-19T10:21:44.155Z,1003.38
2023-02-19T10:22:44.092Z,1003.46
2023-02-19T10:23:45.099Z,1003.49
2023-02-19T10:24:44.086Z,1003.54
2023-02-19T10:25:44.099Z,1003.61
2023-02-19T10:26:44.089Z,1003.68
2023-02-19T10:27:44.172Z,1003.65
2023-02-19T10:28:44.060Z,1003.69
2023-02-19T10:29:44.054Z,1003.71
2023-02-19T10:30:44.073Z,1003.74
2023-02-19T10:31:44.328Z,1003.73
2023-02-19T10:32:44.025Z,1003.74
2023-02-19T10:33:44.029Z,1003.77
2023-02-19T10:34:44.013Z,1003.80
2023-02-19T10:35:44.011Z,1003.79
2023-02-19T10:36:44.152Z,1003.81
2023-02-19T10:37:44.031Z,1003.83
2023-02-19T10:38:44.663Z,1003.81
2023-02-19T10:39:44.115Z,1003.82
2023-02-19T10:40:43.986Z,1003.92
2023-02-19T10:41:44.456Z,1003.96
2023-02-19T10:42:44.967Z,1003.95
2023-02-19T10:43:43.980Z,1003.98
2023-02-19T10:44:43.958Z,1004.00
2023-02-19T10:45:43.947Z,1004.04
2023-02-19T10:46:43.986Z,1004.10
2023-02-19T10:47:44.027Z,1004.14
2023-02-19T10:48:43.989Z,1004.18
2023-02-19T10:49:43.977Z,1004.21
2023-02-19T10:50:43.962Z,1004.18
2023-02-19T10:51:44.889Z,1004.24
2023-02-19T10:52:43.901Z,1004.31
2023-02-19T10:53:43.891Z,1004.33
2023-02-19T10:54:43.904Z,1004.40
2023-02-19T10:55:43.929Z,1004.39
2023-02-19T10:56:43.895Z,1004.44
2023-02-19T10:57:43.869Z,1004.42
2023-02-19T10:58:43.883Z,1004.42
2023-02-19T10:59:46.234Z,1004.43
2023-02-19T11:00:44.673Z,1004.40
2023-02-19T11:01:43.911Z,1004.53
2023-02-19T11:02:43.844Z,1004.51
2023-02-19T11:03:43.842Z,1004.58
2023-02-19T11:04:43.864Z,1004.61
2023-02-19T11:05:43.814Z,1004.57
2023-02-19T11:06:43.831Z,1004.65
2023-02-19T11:07:43.804Z,1004.65
2023-02-19T11:08:43.797Z,1004.65
2023-02-19T11:09:43.802Z,1004.65
2023-02-19T11:10:43.837Z,1004.74
2023-02-19T11:11:43.785Z,1004.71
2023-02-19T11:12:43.759Z,1004.72
2023-02-19T11:13:44.020Z,1004.70
2023-02-19T11:14:44.139Z,1004.66
2023-02-19T11:15:43.774Z,1004.56
2023-02-19T11:16:43.844Z,1004.57
2023-02-19T11:17:43.747Z,1004.53
2023-02-19T11:18:43.739Z,1004.62
2023-02-19T11:19:43.811Z,1004.66
2023-02-19T11:20:43.743Z,1004.66
2023-02-19T11:21:43.716Z,1004.67
2023-02-19T11:22:43.702Z,1004.67
2023-02-19T11:23:43.700Z,1004.69
2023-02-19T11:24:43.696Z,1004.69
2023-02-19T11:25:43.681Z,1004.65
2023-02-19T11:26:43.772Z,1004.63
2023-02-19T11:27:43.845Z,1004.73
2023-02-19T11:28:43.660Z,1004.74
2023-02-19T11:29:43.654Z,1004.69
2023-02-19T11:30:43.712Z,1004.65
2023-02-19T11:31:43.742Z,1004.62
2023-02-19T11:32:44.652Z,1004.60
2023-02-19T11:33:43.641Z,1004.52
2023-02-19T11:34:44.644Z,1004.49
2023-02-19T11:35:43.685Z,1004.56
2023-02-19T11:36:43.600Z,1004.59
2023-02-19T11:37:43.636Z,1004.59
2023-02-19T11:38:43.634Z,1004.61
2023-02-19T11:39:43.634Z,1004.62
2023-02-19T11:40:43.586Z,1004.53
2023-02-19T11:41:43.637Z,1004.53
2023-02-19T11:42:43.633Z,1004.50
2023-02-19T11:43:44.168Z,1004.50
2023-02-19T11:44:44.588Z,1004.50
2023-02-19T11:45:43.722Z,1004.58
2023-02-19T11:46:43.631Z,1004.60
2023-02-19T11:47:43.543Z,1004.65
2023-02-19T11:48:43.573Z,1004.69
2023-02-19T11:49:43.529Z,1004.70
2023-02-19T11:50:43.573Z,1004.75
2023-02-19T11:51:44.956Z,1004.73
2023-02-19T11:52:43.509Z,1004.71
2023-02-19T11:53:43.523Z,1004.85
2023-02-19T11:54:43.506Z,1004.87
2023-02-19T11:55:43.868Z,1004.88
2023-02-19T11:56:43.491Z,1004.90
2023-02-19T11:57:44.169Z,1004.88
2023-02-19T11:58:43.490Z,1004.89
2023-02-19T11:59:43.465Z,1004.84
2023-02-19T12:00:43.507Z,1004.91
2023-02-19T12:01:43.456Z,1004.87
2023-02-19T12:02:43.452Z,1004.94
2023-02-19T12:03:43.461Z,1004.87
2023-02-19T12:04:43.465Z,1004.87
2023-02-19T12:05:43.412Z,1004.88
2023-02-19T12:06:43.498Z,1004.86
2023-02-19T12:07:43.536Z,1004.84
2023-02-19T12:08:44.193Z,1004.82
2023-02-19T12:09:43.436Z,1004.83
2023-02-19T12:10:43.393Z,1004.96
2023-02-19T12:11:43.399Z,1004.92
2023-02-19T12:12:43.399Z,1004.93
2023-02-19T12:13:43.426Z,1004.95
2023-02-19T12:14:43.360Z,1004.91
2023-02-19T12:15:43.379Z,1004.88
2023-02-19T12:16:43.457Z,1004.84
2023-02-19T12:17:43.347Z,1004.86